Time;durP1;ratioP1;P1;durP2;ratioP2;P2;SDS_P1;SDS_P2;PMS_P1;PMS_P2;Temp;Humidity;BMP_temperature;BMP_pressure;BME280_temperature;BME280_humidity;BME280_pressure;Samples;Min_cycle;Max_cycle;Signal;HPM_P1;HPM_P2
2024/01/17 00:01:59;;;;;;;16.17;10.98;;;;;;;-2.57;100.00;99829.72;4969947;28;20305;-44
2024/01/17 00:04:25;;;;;;;15.35;10.55;;;;;;;-2.63;100.00;99811.38;4963525;28;20618;-43
2024/01/17 00:06:51;;;;;;;15.93;11.07;;;;;;;-2.61;100.00;99820.13;4968482;28;20194;-44
2024/01/17 00:09:18;;;;;;;19.42;11.63;;;;;;;-2.59;100.00;99792.16;4969177;28;20188;-45
2024/01/17 00:11:44;;;;;;;18.80;11.27;;;;;;;-2.60;100.00;99793.03;4970907;28;20268;-44
2024/01/17 00:14:09;;;;;;;16.77;11.35;;;;;;;-2.66;100.00;99782.56;4969829;28;20731;-43
2024/01/17 00:16:35;;;;;;;16.17;11.43;;;;;;;-2.61;100.00;99780.78;4966724;28;20178;-47
2024/01/17 00:19:00;;;;;;;15.75;10.57;;;;;;;-2.63;100.00;99789.53;4968710;28;20194;-44
2024/01/17 00:21:27;;;;;;;17.90;12.05;;;;;;;-2.70;100.00;99784.28;4967685;28;20554;-49
2024/01/17 00:23:52;;;;;;;20.48;11.90;;;;;;;-2.70;100.00;99772.94;4968408;28;20285;-43
2024/01/17 00:26:18;;;;;;;14.88;11.45;;;;;;;-2.73;100.00;99762.47;4948441;28;20350;-44
2024/01/17 00:28:43;;;;;;;16.33;11.52;;;;;;;-2.74;100.00;99751.09;4969473;28;20272;-45
2024/01/17 00:31:09;;;;;;;16.90;11.55;;;;;;;-2.73;100.00;99750.22;4970200;28;20605;-45
2024/01/17 00:33:35;;;;;;;15.85;11.23;;;;;;;-2.76;100.00;99733.63;4967246;28;20214;-43
2024/01/17 00:36:01;;;;;;;15.68;11.13;;;;;;;-2.77;100.00;99727.53;4968589;28;20747;-43
2024/01/17 00:38:27;;;;;;;20.08;12.10;;;;;;;-2.74;100.00;99721.38;4964433;28;20241;-43
2024/01/17 00:40:52;;;;;;;14.10;11.20;;;;;;;-2.71;100.00;99721.41;4968720;28;20562;-45
2024/01/17 00:43:18;;;;;;;16.50;11.55;;;;;;;-2.61;100.00;99728.34;4968784;28;20253;-44
2024/01/17 00:45:44;;;;;;;18.05;11.27;;;;;;;-2.66;100.00;99724.88;4965393;28;20572;-45
2024/01/17 00:48:10;;;;;;;15.88;11.48;;;;;;;-2.67;100.00;99712.63;4965803;28;20552;-43
2024/01/17 00:50:35;;;;;;;20.15;12.43;;;;;;;-2.65;100.00;99713.50;4970509;28;20182;-44
2024/01/17 00:53:01;;;;;;;15.15;11.25;;;;;;;-2.72;100.00;99693.44;4964898;28;20191;-45
2024/01/17 00:55:26;;;;;;;15.93;11.02;;;;;;;-2.70;100.00;99696.91;4966175;28;20214;-44
2024/01/17 00:57:52;;;;;;;16.25;11.90;;;;;;;-2.73;100.00;99681.22;4969146;28;20918;-45
2024/01/17 01:00:18;;;;;;;16.85;11.13;;;;;;;-2.76;100.00;99691.69;4969371;28;20223;-46
2024/01/17 01:02:43;;;;;;;16.38;12.23;;;;;;;-2.78;100.00;99672.47;4964216;28;20178;-45
2024/01/17 01:05:11;;;;;;;17.65;11.10;;;;;;;-2.79;100.00;99678.59;4964482;28;20213;-44
2024/01/17 01:07:37;;;;;;;19.73;11.48;;;;;;;-2.82;100.00;99679.50;4967642;28;20221;-46
2024/01/17 01:10:03;;;;;;;15.32;11.43;;;;;;;-2.85;100.00;99669.00;4967109;28;20186;-45
2024/01/17 01:12:28;;;;;;;19.13;12.85;;;;;;;-2.86;100.00;99672.50;4963960;28;20189;-47
2024/01/17 01:14:53;;;;;;;12.98;11.63;;;;;;;-2.85;100.00;99671.63;4942991;28;20567;-46
2024/01/17 01:17:19;;;;;;;15.77;11.77;;;;;;;-2.87;100.00;99662.00;4962577;28;20195;-46
2024/01/17 01:19:45;;;;;;;19.63;11.63;;;;;;;-2.91;100.00;99662.03;4964503;28;20193;-46
2024/01/17 01:22:10;;;;;;;14.98;11.68;;;;;;;-2.86;100.00;99648.03;4961321;28;20174;-45
2024/01/17 01:24:36;;;;;;;18.10;11.95;;;;;;;-2.83;100.00;99645.41;4961720;28;20215;-44
2024/01/17 01:27:01;;;;;;;17.70;11.73;;;;;;;-2.88;100.00;99634.94;4948596;28;20209;-47
2024/01/17 01:29:27;;;;;;;13.82;10.73;;;;;;;-2.87;100.00;99641.03;4960945;28;20234;-46
2024/01/17 01:31:52;;;;;;;19.42;11.73;;;;;;;-2.88;100.00;99637.56;4959625;28;20694;-45
2024/01/17 01:34:19;;;;;;;19.73;10.95;;;;;;;-2.88;100.00;99628.84;4957211;28;20260;-46
2024/01/17 01:36:45;;;;;;;17.70;11.80;;;;;;;-2.87;100.00;99628.81;4965067;28;20636;-46
2024/01/17 01:39:11;;;;;;;16.40;12.68;;;;;;;-2.88;100.00;99626.22;4964944;28;20190;-45
2024/01/17 01:41:36;;;;;;;14.57;11.25;;;;;;;-2.88;100.00;99620.97;4949957;28;20185;-44
2024/01/17 01:44:02;;;;;;;19.08;12.55;;;;;;;-2.86;100.00;99611.31;4963648;28;20189;-45
2024/01/17 01:46:29;;;;;;;14.57;10.90;;;;;;;-2.79;100.00;99608.69;4964807;28;20656;-44
2024/01/17 01:48:54;;;;;;;18.13;11.98;;;;;;;-2.80;100.00;99611.31;4966260;28;20209;-46
2024/01/17 01:51:20;;;;;;;22.13;12.10;;;;;;;-2.78;100.00;99591.22;4964605;28;20226;-47
2024/01/17 01:53:52;;;;;;;15.73;12.15;;;;;;;-2.70;100.00;99599.91;4962626;28;20209;-46
2024/01/17 01:56:21;;;;;;;17.60;12.07;;;;;;;-2.76;100.00;99590.31;4965902;28;20264;-44
2024/01/17 01:58:48;;;;;;;19.52;12.45;;;;;;;-2.77;100.00;99575.47;4963560;28;21234;-46
2024/01/17 02:01:17;;;;;;;17.80;11.57;;;;;;;-2.73;100.00;99589.47;4962869;28;20190;-46
2024/01/17 02:03:45;;;;;;;20.50;12.57;;;;;;;-2.68;100.00;99584.19;4945791;28;20189;-45
2024/01/17 02:06:12;;;;;;;17.05;11.65;;;;;;;-2.68;100.00;99574.56;4946997;28;20202;-45
2024/01/17 02:08:38;;;;;;;20.17;12.18;;;;;;;-2.61;100.00;99576.28;4954455;28;20285;-46
2024/01/17 02:11:04;;;;;;;21.10;12.65;;;;;;;-2.59;100.00;99579.75;4963473;28;20261;-45
2024/01/17 02:13:29;;;;;;;15.88;11.40;;;;;;;-2.53;100.00;99564.00;4965193;28;20583;-44
2024/01/17 02:15:55;;;;;;;18.05;12.07;;;;;;;-2.54;100.00;99567.50;4967927;28;20242;-46
2024/01/17 02:18:21;;;;;;;16.70;12.20;;;;;;;-2.46;100.00;99566.59;4968856;28;20198;-46
2024/01/17 02:20:47;;;;;;;17.40;11.50;;;;;;;-2.51;100.00;99564.88;4965487;28;20194;-46
2024/01/17 02:23:26;;;;;;;18.70;11.50;;;;;;;-2.46;100.00;99563.97;4967438;28;20602;-44
2024/01/17 02:25:52;;;;;;;19.60;11.57;;;;;;;-2.40;100.00;99549.06;4965818;28;20229;-46
2024/01/17 02:28:18;;;;;;;16.80;11.35;;;;;;;-2.41;100.00;99551.69;4967726;28;20190;-45
2024/01/17 02:30:44;;;;;;;19.55;12.30;;;;;;;-2.39;100.00;99544.69;4968650;28;20204;-45
2024/01/17 02:33:12;;;;;;;14.88;11.30;;;;;;;-2.36;100.00;99534.16;4966940;28;20567;-45
2024/01/17 02:35:37;;;;;;;20.27;12.23;;;;;;;-2.34;100.00;99533.28;4967489;28;20218;-45
2024/01/17 02:38:03;;;;;;;18.02;12.40;;;;;;;-2.28;100.00;99535.00;4968783;28;20186;-45
2024/01/17 02:40:28;;;;;;;17.65;12.35;;;;;;;-2.32;100.00;99525.41;4962687;28;20263;-45
2024/01/17 02:42:54;;;;;;;18.30;11.57;;;;;;;-2.30;100.00;99523.63;4965724;28;20201;-46
2024/01/17 02:45:21;;;;;;;15.73;12.00;;;;;;;-2.30;100.00;99497.41;4963366;28;20772;-45
2024/01/17 02:47:46;;;;;;;15.85;11.60;;;;;;;-2.26;100.00;99508.75;4963967;28;20281;-44
2024/01/17 02:50:14;;;;;;;17.85;12.60;;;;;;;-2.24;100.00;99507.84;4964940;28;20277;-45
2024/01/17 02:52:46;;;;;;;18.88;11.75;;;;;;;-2.19;100.00;99508.69;4966610;28;20189;-46
2024/01/17 02:55:12;;;;;;;18.23;11.75;;;;;;;-2.14;100.00;99504.28;4967895;28;20207;-44
2024/01/17 02:57:38;;;;;;;17.48;11.57;;;;;;;-2.13;100.00;99502.53;4967930;28;20237;-44
2024/01/17 03:00:06;;;;;;;14.55;10.98;;;;;;;-2.11;100.00;99483.25;4964662;28;20583;-44
2024/01/17 03:02:32;;;;;;;23.40;11.77;;;;;;;-2.03;100.00;99487.56;4966352;28;20190;-44
2024/01/17 03:04:57;;;;;;;16.40;11.35;;;;;;;-2.07;100.00;99484.97;4964617;28;20194;-47
2024/01/17 03:07:23;;;;;;;16.10;10.48;;;;;;;-2.04;100.00;99476.19;4964280;28;20210;-46
2024/01/17 03:09:48;;;;;;;24.30;12.15;;;;;;;-2.01;100.00;99478.81;4966271;28;20197;-46
2024/01/17 03:12:14;;;;;;;18.73;11.15;;;;;;;-2.00;100.00;99471.81;4966928;28;20547;-46
2024/01/17 03:14:39;;;;;;;14.65;10.68;;;;;;;-2.02;100.00;99470.94;4965589;28;20951;-46
2024/01/17 03:17:05;;;;;;;13.75;10.23;;;;;;;-2.00;100.00;99464.78;4967468;28;20182;-45
2024/01/17 03:19:30;;;;;;;12.73;10.00;;;;;;;-1.97;100.00;99443.78;4964243;28;20188;-47
2024/01/17 03:21:56;;;;;;;18.42;11.02;;;;;;;-1.93;100.00;99455.97;4967668;28;20604;-45
2024/01/17 03:24:21;;;;;;;14.93;10.40;;;;;;;-1.92;100.00;99451.63;4966184;28;20185;-46
2024/01/17 03:26:47;;;;;;;12.90;9.70;;;;;;;-1.85;100.00;99440.16;4967913;28;20449;-45
2024/01/17 03:29:12;;;;;;;13.10;10.30;;;;;;;-1.88;100.00;99427.03;4943328;28;20266;-46
2024/01/17 03:31:38;;;;;;;11.90;9.70;;;;;;;-1.85;100.00;99439.28;4966745;28;20288;-45
2024/01/17 03:34:03;;;;;;;12.90;9.02;;;;;;;-1.79;100.00;99416.47;4966023;28;20233;-43
2024/01/17 03:36:29;;;;;;;17.20;8.88;;;;;;;-1.80;100.00;99413.84;4966416;28;20272;-45
2024/01/17 03:38:55;;;;;;;16.85;9.93;;;;;;;-1.79;100.00;99407.69;4966171;28;20193;-45
2024/01/17 03:41:20;;;;;;;11.43;8.40;;;;;;;-1.75;100.00;99398.91;4967157;28;20240;-46
2024/01/17 03:43:46;;;;;;;13.38;9.05;;;;;;;-1.75;100.00;99398.91;4965432;28;20197;-46
2024/01/17 03:46:12;;;;;;;17.77;9.23;;;;;;;-1.73;100.00;99395.41;4963919;28;20224;-45
2024/01/17 03:48:37;;;;;;;12.50;9.02;;;;;;;-1.74;100.00;99383.16;4966890;28;20189;-46
2024/01/17 03:51:03;;;;;;;12.90;8.35;;;;;;;-1.71;100.00;99382.25;4965305;28;20187;-45
2024/01/17 03:53:28;;;;;;;13.43;8.60;;;;;;;-1.74;100.00;99375.28;4963081;28;20209;-45
2024/01/17 03:55:54;;;;;;;12.95;8.65;;;;;;;-1.74;100.00;99356.91;4966614;28;20313;-46
2024/01/17 03:58:19;;;;;;;11.98;8.43;;;;;;;-1.73;100.00;99356.03;4964400;28;20174;-43
2024/01/17 04:00:45;;;;;;;14.23;8.25;;;;;;;-1.67;100.00;99342.78;4963231;28;20291;-43
2024/01/17 04:03:15;;;;;;;12.27;8.20;;;;;;;-1.67;100.00;99334.91;4967253;28;20285;-45
2024/01/17 04:05:41;;;;;;;13.07;8.20;;;;;;;-1.66;100.00;99328.78;4964736;28;20959;-46
2024/01/17 04:08:07;;;;;;;11.50;8.23;;;;;;;-1.60;100.00;99317.31;4963469;28;20248;-45
2024/01/17 04:10:33;;;;;;;15.10;7.80;;;;;;;-1.66;100.00;99320.91;4963254;28;20248;-44
2024/01/17 04:13:00;;;;;;;12.35;8.43;;;;;;;-1.67;100.00;99313.06;4964374;28;20649;-45
2024/01/17 04:15:26;;;;;;;11.32;7.82;;;;;;;-1.65;100.00;99300.78;4951846;28;20214;-46
2024/01/17 04:17:51;;;;;;;11.82;7.97;;;;;;;-1.63;100.00;99300.75;4967132;28;20208;-46
2024/01/17 04:20:17;;;;;;;11.25;7.13;;;;;;;-1.64;100.00;99284.16;4958446;28;20190;-46
2024/01/17 04:22:43;;;;;;;17.73;8.50;;;;;;;-1.61;100.00;99288.47;4967811;28;20195;-46
2024/01/17 04:25:08;;;;;;;12.63;7.65;;;;;;;-1.57;100.00;99290.19;4966276;28;20228;-47
2024/01/17 04:27:34;;;;;;;11.68;7.18;;;;;;;-1.57;100.00;99284.94;4948016;28;20801;-46
2024/01/17 04:29:59;;;;;;;13.05;7.47;;;;;;;-1.59;100.00;99269.19;4966941;28;20189;-45
2024/01/17 04:32:26;;;;;;;11.43;7.13;;;;;;;-1.62;100.00;99277.09;4967433;28;20205;-45
2024/01/17 04:34:51;;;;;;;8.52;7.35;;;;;;;-1.60;100.00;99274.44;4965074;28;20434;-45
2024/01/17 04:37:17;;;;;;;10.30;7.75;;;;;;;-1.56;100.00;99273.53;4947900;28;20301;-46
2024/01/17 04:39:43;;;;;;;10.90;6.93;;;;;;;-1.60;100.00;99263.94;4961527;28;20563;-45
2024/01/17 04:42:08;;;;;;;9.05;6.97;;;;;;;-1.66;100.00;99255.28;4962392;28;20232;-44
2024/01/17 04:44:34;;;;;;;13.10;7.50;;;;;;;-1.65;100.00;99245.63;4965900;28;20273;-46
2024/01/17 04:47:00;;;;;;;9.57;7.32;;;;;;;-1.76;100.00;99253.66;4963232;28;20704;-46
2024/01/17 04:49:27;;;;;;;14.88;7.40;;;;;;;-1.77;100.00;99251.03;4949980;28;20202;-45
2024/01/17 04:51:54;;;;;;;11.85;7.10;;;;;;;-1.91;100.00;99244.22;4966026;28;20194;-42
2024/01/17 04:54:21;;;;;;;14.75;8.35;;;;;;;-1.98;100.00;99241.72;4965764;28;20205;-45
2024/01/17 04:56:47;;;;;;;10.50;8.48;;;;;;;-1.99;100.00;99245.22;4964884;28;20198;-44
2024/01/17 04:59:12;;;;;;;14.20;8.77;;;;;;;-1.99;100.00;99224.22;4967032;28;20193;-45
2024/01/17 05:01:37;;;;;;;13.32;8.23;;;;;;;-1.94;100.00;99222.41;4966353;28;20189;-43
2024/01/17 05:04:03;;;;;;;11.07;8.50;;;;;;;-1.89;100.00;99212.72;4948813;28;20265;-45
2024/01/17 05:06:30;;;;;;;14.18;8.27;;;;;;;-1.88;100.00;99227.56;4964158;28;20182;-44
2024/01/17 05:08:58;;;;;;;13.38;9.13;;;;;;;-1.85;100.00;99209.16;4965381;28;20631;-44
2024/01/17 05:11:24;;;;;;;13.85;8.10;;;;;;;-1.81;100.00;99208.22;4965601;28;20248;-44
2024/01/17 05:13:50;;;;;;;12.50;8.07;;;;;;;-1.76;100.00;99206.41;4963049;28;20217;-44
2024/01/17 05:16:16;;;;;;;12.80;8.07;;;;;;;-1.76;100.00;99198.53;4964060;28;20323;-44
2024/01/17 05:18:41;;;;;;;13.13;7.72;;;;;;;-1.69;100.00;99194.06;4962792;28;20190;-42
2024/01/17 05:21:07;;;;;;;13.88;8.35;;;;;;;-1.77;100.00;99170.56;4961379;28;21097;-46
2024/01/17 05:23:32;;;;;;;11.40;7.70;;;;;;;-1.77;100.00;99170.56;4965647;28;20182;-46
2024/01/17 05:25:58;;;;;;;12.13;7.88;;;;;;;-1.76;100.00;99156.53;4963321;28;20210;-44
2024/01/17 05:28:23;;;;;;;10.77;7.45;;;;;;;-1.79;100.00;99153.06;4967028;28;20703;-44
2024/01/17 05:30:49;;;;;;;13.68;7.20;;;;;;;-1.78;100.00;99154.81;4967927;28;20593;-45
2024/01/17 05:33:14;;;;;;;8.73;7.75;;;;;;;-1.84;100.00;99129.50;4966380;28;20221;-44
2024/01/17 05:35:40;;;;;;;10.30;7.55;;;;;;;-1.87;100.00;99132.19;4965461;28;20226;-44
2024/01/17 05:38:06;;;;;;;10.93;8.07;;;;;;;-1.90;100.00;99130.50;4964077;28;20615;-43
2024/01/17 05:40:31;;;;;;;7.90;6.97;;;;;;;-1.92;100.00;99108.66;4948244;28;20174;-43
2024/01/17 05:42:57;;;;;;;11.13;7.53;;;;;;;-1.86;100.00;99102.41;4965396;28;20190;-43
2024/01/17 05:45:23;;;;;;;10.82;7.55;;;;;;;-1.85;100.00;99079.69;4960435;28;20209;-48
2024/01/17 05:47:49;;;;;;;11.73;7.85;;;;;;;-1.88;100.00;99093.69;4964776;28;20562;-44
2024/01/17 05:50:14;;;;;;;12.82;7.78;;;;;;;-1.91;100.00;99081.50;4968207;28;20245;-43
2024/01/17 05:52:45;;;;;;;14.23;7.55;;;;;;;-1.93;100.00;99088.53;4970130;28;20197;-43
2024/01/17 05:55:12;;;;;;;12.52;7.68;;;;;;;-1.95;100.00;99084.19;4966573;28;20214;-44
2024/01/17 05:57:38;;;;;;;11.65;7.93;;;;;;;-1.98;100.00;99060.63;4966070;28;20187;-44
2024/01/17 06:00:10;;;;;;;12.27;7.75;;;;;;;-1.98;100.00;99071.13;4964476;28;20193;-43
2024/01/17 06:02:42;;;;;;;16.00;8.02;;;;;;;-2.04;100.00;99058.97;4968373;28;20629;-45
2024/01/17 06:05:08;;;;;;;11.93;8.02;;;;;;;-2.06;100.00;99066.00;4946239;28;20672;-44
2024/01/17 06:07:34;;;;;;;11.43;8.75;;;;;;;-2.04;100.00;99047.63;4966305;28;20293;-43
2024/01/17 06:10:00;;;;;;;11.63;8.77;;;;;;;-2.10;100.00;99052.06;4948985;28;20715;-43
2024/01/17 06:12:25;;;;;;;11.45;8.55;;;;;;;-2.03;100.00;99051.97;4964207;28;20220;-44
2024/01/17 06:14:51;;;;;;;15.60;8.93;;;;;;;-2.07;100.00;99054.63;4963976;28;20300;-44
2024/01/17 06:17:17;;;;;;;11.98;8.45;;;;;;;-2.09;100.00;99051.16;4970252;28;20202;-44
2024/01/17 06:19:43;;;;;;;9.60;8.48;;;;;;;-2.11;100.00;99052.94;4946519;28;20554;-44
2024/01/17 06:22:09;;;;;;;13.73;9.02;;;;;;;-2.08;100.00;99055.53;4966455;28;20270;-43
2024/01/17 06:24:34;;;;;;;13.65;8.43;;;;;;;-2.10;100.00;99043.31;4969475;28;20297;-44
2024/01/17 06:27:01;;;;;;;13.13;8.88;;;;;;;-2.09;100.00;99030.19;4962794;28;20605;-42
2024/01/17 06:29:29;;;;;;;12.20;8.55;;;;;;;-2.10;100.00;99035.44;4964133;28;20623;-46
2024/01/17 06:31:55;;;;;;;13.60;9.38;;;;;;;-2.13;100.00;99039.00;4966519;28;20317;-45
2024/01/17 06:34:20;;;;;;;11.05;8.07;;;;;;;-2.15;100.00;99035.53;4966256;28;20238;-44
2024/01/17 06:36:46;;;;;;;14.48;8.65;;;;;;;-2.17;100.00;99037.28;4969168;28;20843;-43
2024/01/17 06:39:12;;;;;;;14.15;8.75;;;;;;;-2.15;100.00;99039.91;4967682;28;20652;-47
2024/01/17 06:41:37;;;;;;;17.00;9.48;;;;;;;-2.20;100.00;99031.25;4952143;28;20183;-45
2024/01/17 06:44:03;;;;;;;13.90;9.65;;;;;;;-2.20;100.00;99024.25;4965018;28;20179;-45
2024/01/17 06:46:28;;;;;;;12.68;8.98;;;;;;;-2.24;100.00;99026.94;4964591;28;20187;-44
2024/01/17 06:48:54;;;;;;;13.95;8.45;;;;;;;-2.23;100.00;99021.69;4970647;28;20597;-39
2024/01/17 06:51:19;;;;;;;13.75;8.35;;;;;;;-2.25;100.00;99018.22;4970276;28;20209;-42
2024/01/17 06:53:45;;;;;;;11.02;8.43;;;;;;;-2.28;100.00;99003.38;4968952;28;20673;-42
2024/01/17 06:56:11;;;;;;;13.70;9.57;;;;;;;-2.30;100.00;99017.41;4968744;28;20206;-42
2024/01/17 06:58:36;;;;;;;18.17;9.40;;;;;;;-2.30;100.00;99010.41;4965010;28;20182;-42
2024/01/17 07:01:02;;;;;;;12.23;8.68;;;;;;;-2.28;100.00;99008.59;4965552;28;20171;-43
2024/01/17 07:03:27;;;;;;;15.38;8.95;;;;;;;-2.25;100.00;98997.22;4968294;28;20174;-43
2024/01/17 07:05:53;;;;;;;14.93;8.93;;;;;;;-2.29;100.00;98998.16;4967410;28;20206;-43
2024/01/17 07:08:19;;;;;;;14.23;8.98;;;;;;;-2.30;100.00;98991.16;4971199;28;20209;-42
2024/01/17 07:10:44;;;;;;;14.27;9.18;;;;;;;-2.10;100.00;98993.47;4969706;28;20196;-43
2024/01/17 07:13:10;;;;;;;12.27;8.23;;;;;;;-2.09;100.00;98998.69;4970624;28;20246;-41
2024/01/17 07:15:36;;;;;;;13.40;8.60;;;;;;;-2.11;100.00;98997.84;4967144;28;20272;-42
2024/01/17 07:18:01;;;;;;;13.60;8.32;;;;;;;-2.14;100.00;99003.16;4967279;28;20272;-42
2024/01/17 07:20:27;;;;;;;12.82;8.77;;;;;;;-2.13;100.00;99001.41;4966871;28;20182;-45
2024/01/17 07:22:52;;;;;;;12.55;8.43;;;;;;;-2.12;100.00;98985.66;4968990;28;20204;-43
2024/01/17 07:25:18;;;;;;;10.77;7.63;;;;;;;-2.11;99.87;98995.22;4967912;28;20225;-41
2024/01/17 07:27:47;;;;;;;13.95;8.40;;;;;;;-2.08;100.00;98991.69;4936260;28;20174;-43
2024/01/17 07:30:14;;;;;;;10.98;8.20;;;;;;;-2.03;100.00;98992.50;4963994;28;20230;-43
2024/01/17 07:32:41;;;;;;;12.15;7.85;;;;;;;-2.05;99.82;98978.53;4966532;28;20340;-44
2024/01/17 07:35:07;;;;;;;11.23;8.35;;;;;;;-2.08;99.82;98986.44;4966983;28;20297;-43
2024/01/17 07:37:33;;;;;;;12.40;8.60;;;;;;;-2.09;99.47;98996.06;4966333;28;20193;-43
2024/01/17 07:39:59;;;;;;;10.07;7.50;;;;;;;-2.08;99.65;98989.94;4954442;28;20268;-44
2024/01/17 07:42:25;;;;;;;12.55;8.25;;;;;;;-1.97;99.63;98986.25;4968308;28;20194;-43
2024/01/17 07:44:50;;;;;;;12.35;7.90;;;;;;;-2.04;100.00;98982.88;4964383;28;20209;-43
2024/01/17 07:47:16;;;;;;;12.85;8.35;;;;;;;-2.02;99.81;99009.09;4969624;28;20601;-43
2024/01/17 07:49:44;;;;;;;11.43;8.00;;;;;;;-1.97;99.44;98991.50;4969079;28;20186;-45
2024/01/17 07:52:10;;;;;;;12.27;7.68;;;;;;;-1.93;99.17;98998.44;4970308;28;20205;-44
2024/01/17 07:54:36;;;;;;;12.90;8.07;;;;;;;-1.96;99.45;98986.25;4969116;28;20258;-44
2024/01/17 07:57:03;;;;;;;12.52;7.90;;;;;;;-1.92;99.20;99003.66;4966729;28;20201;-44
2024/01/17 07:59:28;;;;;;;10.02;7.13;;;;;;;-1.90;99.40;98985.28;4965617;28;20198;-44
2024/01/17 08:01:54;;;;;;;9.88;7.13;;;;;;;-1.87;98.88;98988.69;4968509;28;20182;-43
2024/01/17 08:04:21;;;;;;;13.52;8.18;;;;;;;-1.87;98.44;98974.72;4965960;28;20182;-43
2024/01/17 08:06:47;;;;;;;8.75;6.78;;;;;;;-1.84;98.34;98981.66;4968982;28;20604;-42
2024/01/17 08:09:24;;;;;;;11.02;7.53;;;;;;;-1.85;98.82;98975.56;4965003;28;20182;-43
2024/01/17 08:11:51;;;;;;;8.00;6.35;;;;;;;-1.84;97.51;98972.03;4967254;28;20186;-43
2024/01/17 08:14:16;;;;;;;12.25;6.72;;;;;;;-1.74;97.49;98980.63;4964049;28;20416;-42
2024/01/17 08:16:43;;;;;;;10.88;7.05;;;;;;;-1.78;97.73;98961.41;4966861;28;20186;-43
2024/01/17 08:19:09;;;;;;;8.75;6.72;;;;;;;-1.74;97.22;98968.34;4965440;28;20247;-44
2024/01/17 08:21:35;;;;;;;9.52;7.05;;;;;;;-1.69;97.06;98965.63;4968118;28;20695;-40
2024/01/17 08:24:00;;;;;;;9.75;6.07;;;;;;;-1.74;96.75;98959.63;4968245;28;20201;-42
2024/01/17 08:26:26;;;;;;;8.13;6.05;;;;;;;-1.77;96.46;98934.28;4965817;28;20209;-44
2024/01/17 08:28:52;;;;;;;6.95;5.82;;;;;;;-1.73;96.17;98959.59;4949411;28;20194;-42
2024/01/17 08:31:18;;;;;;;9.30;6.13;;;;;;;-1.77;95.84;98947.41;4965529;28;20232;-43
2024/01/17 08:33:43;;;;;;;8.57;6.28;;;;;;;-1.71;95.63;98936.78;4967531;28;20581;-42
2024/01/17 08:36:09;;;;;;;8.63;6.20;;;;;;;-1.68;95.56;98941.13;4961842;28;20701;-42
2024/01/17 08:38:35;;;;;;;10.30;6.32;;;;;;;-1.68;95.11;98946.38;4964211;28;20248;-42
2024/01/17 08:41:00;;;;;;;8.30;5.85;;;;;;;-1.71;94.81;98931.53;4965807;28;20186;-43
2024/01/17 08:43:26;;;;;;;7.32;5.38;;;;;;;-1.67;95.22;98935.81;4965462;28;20537;-42
2024/01/17 08:45:51;;;;;;;10.05;6.25;;;;;;;-1.66;94.70;98929.69;4963770;28;20242;-42
2024/01/17 08:48:17;;;;;;;10.85;5.90;;;;;;;-1.66;94.01;98920.97;4964309;28;20181;-44
2024/01/17 08:50:42;;;;;;;7.32;5.47;;;;;;;-1.70;94.39;98927.16;4962090;28;20264;-42
2024/01/17 08:53:09;;;;;;;9.38;5.30;;;;;;;-1.70;93.94;98925.41;4966874;28;20197;-43
2024/01/17 08:55:35;;;;;;;7.85;5.70;;;;;;;-1.57;94.07;98939.16;4964396;28;20210;-43
2024/01/17 08:58:00;;;;;;;8.30;5.68;;;;;;;-1.66;93.97;98932.31;4963092;28;20236;-41
2024/01/17 09:00:26;;;;;;;8.50;5.30;;;;;;;-1.61;94.13;98926.97;4966171;28;20197;-43
2024/01/17 09:02:52;;;;;;;11.35;5.68;;;;;;;-1.65;94.71;98925.31;4965466;28;20190;-43
2024/01/17 09:05:20;;;;;;;6.90;5.47;;;;;;;-1.59;94.19;98913.81;4967608;28;20570;-43
2024/01/17 09:07:48;;;;;;;8.50;5.78;;;;;;;-1.63;93.89;98904.28;4965980;28;20186;-43
2024/01/17 09:10:14;;;;;;;6.90;4.90;;;;;;;-1.52;94.44;98920.69;4966807;28;20182;-42
2024/01/17 09:12:40;;;;;;;7.78;5.22;;;;;;;-1.59;93.86;98927.81;4967328;28;20567;-43
2024/01/17 09:15:06;;;;;;;10.68;5.55;;;;;;;-1.55;93.59;98923.34;4964298;28;20518;-43
2024/01/17 09:17:32;;;;;;;8.95;5.72;;;;;;;-1.59;93.69;98927.81;4968277;28;20244;-41
2024/01/17 09:19:57;;;;;;;7.55;5.32;;;;;;;-1.52;93.34;98925.94;4966149;28;20197;-42
2024/01/17 09:22:23;;;;;;;7.25;5.38;;;;;;;-1.59;93.47;98935.69;4965373;28;20185;-43
2024/01/17 09:24:48;;;;;;;9.02;5.15;;;;;;;-1.64;93.91;98931.41;4966300;28;20209;-41
2024/01/17 09:27:14;;;;;;;7.70;4.97;;;;;;;-1.64;94.13;98928.78;4959693;28;20196;-43
2024/01/17 09:29:40;;;;;;;9.00;5.30;;;;;;;-1.56;93.70;98947.88;4967013;28;20708;-42
2024/01/17 09:32:06;;;;;;;8.25;5.18;;;;;;;-1.61;94.24;98941.88;4965059;28;20198;-43
2024/01/17 09:34:34;;;;;;;9.07;5.45;;;;;;;-1.57;94.10;98946.19;4965917;28;20210;-41
2024/01/17 09:37:02;;;;;;;9.27;5.65;;;;;;;-1.62;94.17;98945.38;4966856;28;20746;-42
2024/01/17 09:39:29;;;;;;;9.73;5.03;;;;;;;-1.57;94.15;98941.78;4968087;28;20607;-42
2024/01/17 09:41:55;;;;;;;6.32;4.90;;;;;;;-1.48;93.78;98940.72;4965189;28;20719;-42
2024/01/17 09:44:20;;;;;;;9.70;5.30;;;;;;;-1.52;93.74;98941.69;4965144;28;20186;-43
2024/01/17 09:46:48;;;;;;;7.95;4.82;;;;;;;-1.55;93.64;98942.63;4951457;28;20184;-43
2024/01/17 09:49:13;;;;;;;11.77;5.60;;;;;;;-1.52;94.11;98936.44;4964663;28;20540;-43
2024/01/17 09:51:39;;;;;;;7.32;5.13;;;;;;;-1.52;93.84;98941.69;4964289;28;20242;-42
2024/01/17 09:54:05;;;;;;;6.90;5.00;;;;;;;-1.40;94.35;98948.44;4963902;28;20711;-41
2024/01/17 09:56:32;;;;;;;12.82;5.80;;;;;;;-1.59;93.85;98934.84;4966103;28;20606;-41
2024/01/17 09:59:13;;;;;;;7.32;5.22;;;;;;;-1.53;94.50;98940.81;4964617;28;20297;-44
2024/01/17 10:01:40;;;;;;;7.72;5.18;;;;;;;-1.43;94.38;98933.63;4964429;28;20214;-42
2024/01/17 10:04:06;;;;;;;10.45;5.43;;;;;;;-1.40;95.13;98941.44;4961366;28;20186;-43
2024/01/17 10:06:32;;;;;;;7.60;5.68;;;;;;;-1.52;94.97;98925.94;4963637;28;20179;-42
2024/01/17 10:08:59;;;;;;;6.57;5.20;;;;;;;-1.42;95.51;98940.63;4962404;28;20186;-41
2024/01/17 10:11:25;;;;;;;8.82;5.18;;;;;;;-1.53;95.74;98935.56;4965608;28;20182;-42
2024/01/17 10:13:50;;;;;;;6.80;5.10;;;;;;;-1.55;96.45;98946.97;4962630;28;20194;-43
2024/01/17 10:16:16;;;;;;;7.10;5.05;;;;;;;-1.56;96.22;98950.50;4961822;28;20214;-42
2024/01/17 10:18:41;;;;;;;6.80;5.40;;;;;;;-1.59;96.41;98940.09;4961844;28;20648;-43
2024/01/17 10:21:07;;;;;;;8.93;5.47;;;;;;;-1.55;96.96;98940.00;4963579;28;20217;-44
2024/01/17 10:23:36;;;;;;;6.78;5.20;;;;;;;-1.55;96.60;98934.75;4961329;28;20557;-43
2024/01/17 10:26:02;;;;;;;10.45;5.53;;;;;;;-1.64;96.66;98936.66;4962884;28;20210;-43
2024/01/17 10:28:32;;;;;;;12.45;5.13;;;;;;;-1.71;97.29;98947.28;4966848;28;20649;-43
2024/01/17 10:30:58;;;;;;;8.80;5.35;;;;;;;-1.56;97.87;98934.75;4962747;28;20190;-43
2024/01/17 10:33:23;;;;;;;9.90;5.70;;;;;;;-1.49;98.37;98941.63;4962682;28;20692;-42
2024/01/17 10:35:50;;;;;;;6.72;5.18;;;;;;;-1.60;98.36;98949.69;4969862;28;20210;-43
2024/01/17 10:38:16;;;;;;;11.30;5.75;;;;;;;-1.47;98.71;98945.06;4967222;28;20593;-43
2024/01/17 10:40:44;;;;;;;6.80;5.82;;;;;;;-1.59;99.01;98946.19;4971499;28;20479;-44
2024/01/17 10:43:10;;;;;;;9.18;5.43;;;;;;;-1.47;99.96;98950.31;4968100;28;20244;-44
2024/01/17 10:45:37;;;;;;;11.15;5.95;;;;;;;-1.56;99.59;98935.63;4961824;28;20656;-43
2024/01/17 10:48:05;;;;;;;7.07;5.13;;;;;;;-1.54;99.86;98935.59;4971143;28;20186;-44
2024/01/17 10:50:31;;;;;;;8.98;6.00;;;;;;;-1.51;100.00;98943.41;4970253;28;20209;-41
2024/01/17 10:53:08;;;;;;;7.97;5.53;;;;;;;-1.47;100.00;98942.44;4968468;28;20494;-40
2024/01/17 10:55:36;;;;;;;9.30;5.68;;;;;;;-1.46;100.00;98941.56;4967232;28;20213;-42
2024/01/17 10:58:08;;;;;;;9.38;6.15;;;;;;;-1.45;100.00;98943.28;4963929;28;20184;-42
2024/01/17 11:00:37;;;;;;;10.73;5.78;;;;;;;-1.54;100.00;98936.47;4947601;28;20653;-42
2024/01/17 11:03:08;;;;;;;8.30;5.60;;;;;;;-1.45;100.00;98935.41;4969419;28;20182;-41
2024/01/17 11:05:43;;;;;;;8.60;5.63;;;;;;;-1.49;100.00;98920.59;4966864;28;20714;-43
2024/01/17 11:08:10;;;;;;;7.32;5.40;;;;;;;-1.49;100.00;98934.63;4968031;28;20193;-42
2024/01/17 11:10:36;;;;;;;8.68;5.80;;;;;;;-1.60;100.00;98928.69;4969670;28;20181;-41
2024/01/17 11:13:04;;;;;;;9.90;6.00;;;;;;;-1.66;100.00;98932.31;4965480;28;20676;-43
2024/01/17 11:15:31;;;;;;;8.50;5.28;;;;;;;-1.69;100.00;98928.88;4966833;28;20226;-46